createdAt,value
2018-05-17T00:00:47.965Z,0.00
2018-05-17T00:01:47.939Z,0.00
2018-05-17T00:02:47.914Z,0.00
2018-05-17T00:03:47.898Z,0.00
2018-05-17T00:04:47.862Z,0.00
2018-05-17T00:05:47.836Z,0.00
2018-05-17T00:06:47.811Z,0.00
2018-05-17T00:07:47.785Z,0.00
2018-05-17T00:08:47.759Z,0.00
2018-05-17T00:09:47.734Z,0.00
2018-05-17T00:10:47.709Z,0.00
2018-05-17T00:11:47.686Z,0.00
2018-05-17T00:12:47.658Z,0.00
2018-05-17T00:13:47.632Z,0.00
2018-05-17T00:14:47.612Z,0.00
2018-05-17T00:15:47.580Z,0.00
2018-05-17T00:16:47.557Z,0.00
2018-05-17T00:17:47.529Z,0.00
2018-05-17T00:18:47.503Z,0.00
2018-05-17T00:19:47.487Z,0.00
2018-05-17T00:20:47.452Z,0.00
2018-05-17T00:21:47.433Z,0.00
2018-05-17T00:22:47.401Z,0.00
2018-05-17T00:23:47.379Z,0.00
2018-05-17T00:24:47.349Z,0.00
2018-05-17T00:25:47.328Z,0.00
2018-05-17T00:26:47.303Z,0.00
2018-05-17T00:27:47.272Z,0.00
2018-05-17T00:28:47.246Z,0.00
2018-05-17T00:29:47.222Z,0.00
2018-05-17T00:30:47.199Z,0.00
2018-05-17T00:31:47.169Z,0.00
2018-05-17T00:32:47.143Z,0.00
2018-05-17T00:33:47.119Z,0.00
2018-05-17T00:34:47.101Z,0.00
2018-05-17T00:35:47.164Z,0.00
2018-05-17T00:36:47.042Z,0.00
2018-05-17T00:37:47.016Z,0.00
2018-05-17T00:38:46.989Z,0.00
2018-05-17T00:39:46.965Z,0.00
2018-05-17T00:40:46.939Z,0.00
2018-05-17T00:41:46.912Z,0.00
2018-05-17T00:42:46.887Z,0.00
2018-05-17T00:43:46.860Z,0.00
2018-05-17T00:44:46.837Z,0.00
2018-05-17T00:45:46.811Z,0.00
2018-05-17T00:46:46.783Z,0.00
2018-05-17T00:47:46.757Z,0.00
2018-05-17T00:48:46.732Z,0.00
2018-05-17T00:49:46.706Z,0.00
2018-05-17T00:50:46.680Z,0.00
2018-05-17T00:51:46.654Z,0.00
2018-05-17T00:52:46.628Z,0.00
2018-05-17T00:53:46.604Z,0.00
2018-05-17T00:54:46.580Z,0.00
2018-05-17T00:55:46.551Z,0.00
2018-05-17T00:56:46.534Z,0.00
2018-05-17T00:57:46.502Z,0.00
2018-05-17T00:58:46.474Z,0.00
2018-05-17T00:59:46.448Z,0.00
2018-05-17T01:00:46.423Z,0.00
2018-05-17T01:01:46.397Z,0.00
2018-05-17T01:02:46.371Z,0.00
2018-05-17T01:03:46.345Z,0.00
2018-05-17T01:04:46.320Z,0.00
2018-05-17T01:05:46.297Z,0.00
2018-05-17T01:06:46.276Z,0.00
2018-05-17T01:07:46.241Z,0.00
2018-05-17T01:08:46.216Z,0.00
2018-05-17T01:09:46.196Z,0.00
2018-05-17T01:10:46.164Z,0.00
2018-05-17T01:11:46.144Z,0.00
2018-05-17T01:12:46.113Z,0.00
2018-05-17T01:13:46.087Z,0.00
2018-05-17T01:14:46.067Z,0.00
2018-05-17T01:15:46.035Z,0.00
2018-05-17T01:16:46.013Z,0.00
2018-05-17T01:17:45.984Z,0.00
2018-05-17T01:18:45.958Z,0.00
2018-05-17T01:19:45.931Z,0.00
2018-05-17T01:20:45.913Z,0.00
2018-05-17T01:21:45.880Z,0.00
2018-05-17T01:22:45.858Z,0.00
2018-05-17T01:23:45.830Z,0.00
2018-05-17T01:24:45.853Z,0.00
2018-05-17T01:25:45.777Z,0.00
2018-05-17T01:26:45.751Z,0.00
2018-05-17T01:27:45.729Z,0.00
2018-05-17T01:28:45.699Z,0.00
2018-05-17T01:29:45.674Z,0.00
2018-05-17T01:30:45.648Z,0.00
2018-05-17T01:31:45.621Z,0.00
2018-05-17T01:32:45.600Z,0.00
2018-05-17T01:33:45.573Z,0.00
2018-05-17T01:34:45.548Z,0.00
2018-05-17T01:35:45.518Z,0.00
2018-05-17T01:36:45.492Z,0.00
2018-05-17T01:37:45.467Z,0.00
2018-05-17T01:38:45.441Z,0.00
2018-05-17T01:39:45.414Z,0.00
2018-05-17T01:40:45.390Z,0.00
2018-05-17T01:41:45.413Z,0.00
2018-05-17T01:42:45.351Z,0.00
2018-05-17T01:43:45.311Z,0.00
2018-05-17T01:44:45.285Z,0.00
2018-05-17T01:45:45.267Z,0.00
2018-05-17T01:46:45.238Z,0.00
2018-05-17T01:47:45.208Z,0.00
2018-05-17T01:48:45.182Z,0.00
2018-05-17T01:49:45.156Z,0.00
2018-05-17T01:50:45.137Z,0.00
2018-05-17T01:51:45.104Z,0.00
2018-05-17T01:52:45.078Z,0.00
2018-05-17T01:53:45.054Z,0.00
2018-05-17T01:54:45.034Z,0.00
2018-05-17T01:55:45.001Z,0.00
2018-05-17T01:56:44.980Z,0.00
2018-05-17T01:57:44.947Z,0.00
2018-05-17T01:58:44.922Z,0.00
2018-05-17T01:59:44.895Z,0.00
2018-05-17T02:00:44.870Z,0.00
2018-05-17T02:01:44.844Z,0.00
2018-05-17T02:02:44.820Z,0.00
2018-05-17T02:03:44.791Z,0.00
2018-05-17T02:04:44.766Z,0.00
2018-05-17T02:05:44.739Z,0.00
2018-05-17T02:06:44.714Z,0.00
2018-05-17T02:07:44.687Z,0.00
2018-05-17T02:08:44.661Z,0.00
2018-05-17T02:09:44.639Z,0.00
2018-05-17T02:10:44.611Z,0.00
2018-05-17T02:11:44.583Z,0.00
2018-05-17T02:12:44.557Z,0.00
2018-05-17T02:13:44.533Z,0.00
2018-05-17T02:14:44.505Z,0.00
2018-05-17T02:15:44.479Z,0.00
2018-05-17T02:16:44.455Z,0.00
2018-05-17T02:17:44.431Z,0.00
2018-05-17T02:18:44.401Z,0.00
2018-05-17T02:19:44.374Z,0.00
2018-05-17T02:20:44.349Z,0.00
2018-05-17T02:21:44.327Z,0.00
2018-05-17T02:22:44.296Z,0.00
2018-05-17T02:23:44.270Z,0.00
2018-05-17T02:24:44.244Z,0.00
2018-05-17T02:25:44.218Z,0.00
2018-05-17T02:26:44.192Z,0.00
2018-05-17T02:27:44.166Z,0.00
2018-05-17T02:28:44.141Z,0.00
2018-05-17T02:29:44.114Z,0.00
2018-05-17T02:30:44.089Z,0.00
2018-05-17T02:31:44.063Z,0.00
2018-05-17T02:32:44.036Z,0.00
2018-05-17T02:33:44.013Z,0.00
2018-05-17T02:34:43.985Z,0.00
2018-05-17T02:35:43.957Z,0.00
2018-05-17T02:36:43.932Z,0.00
2018-05-17T02:37:43.906Z,0.00
2018-05-17T02:38:43.879Z,0.00
2018-05-17T02:39:43.853Z,0.00
2018-05-17T02:40:43.828Z,0.00
2018-05-17T02:41:43.805Z,0.00
2018-05-17T02:42:43.782Z,0.00
2018-05-17T02:43:43.748Z,0.00
2018-05-17T02:44:43.725Z,0.00
2018-05-17T02:45:43.697Z,0.00
2018-05-17T02:46:43.676Z,0.00
2018-05-17T02:47:43.645Z,0.00
2018-05-17T02:48:43.624Z,0.00
2018-05-17T02:49:43.594Z,0.00
2018-05-17T02:50:43.567Z,0.00
2018-05-17T02:51:43.590Z,0.00
2018-05-17T02:52:43.515Z,0.00
2018-05-17T02:53:43.490Z,0.00
2018-05-17T02:54:43.462Z,0.00
2018-05-17T02:55:43.436Z,0.00
2018-05-17T02:56:43.413Z,0.00
2018-05-17T02:57:43.385Z,0.00
2018-05-17T02:58:43.360Z,0.00
2018-05-17T02:59:43.331Z,0.00
2018-05-17T03:00:43.305Z,5.63
2018-05-17T03:01:43.280Z,5.63
2018-05-17T03:02:43.256Z,5.63
2018-05-17T03:03:43.228Z,5.63
2018-05-17T03:04:43.201Z,5.63
2018-05-17T03:05:43.176Z,5.63
2018-05-17T03:06:43.149Z,5.63
2018-05-17T03:07:43.125Z,5.63
2018-05-17T03:08:43.098Z,11.25
2018-05-17T03:09:43.071Z,11.25
2018-05-17T03:10:43.046Z,11.25
2018-05-17T03:11:43.018Z,11.25
2018-05-17T03:12:42.992Z,11.25
2018-05-17T03:13:42.966Z,16.88
2018-05-17T03:14:42.949Z,16.88
2018-05-17T03:15:42.915Z,16.88
2018-05-17T03:16:42.887Z,16.88
2018-05-17T03:17:42.862Z,22.50
2018-05-17T03:18:42.837Z,22.50
2018-05-17T03:19:42.810Z,22.50
2018-05-17T03:20:42.784Z,22.50
2018-05-17T03:21:42.766Z,28.13
2018-05-17T03:22:42.732Z,28.13
2018-05-17T03:23:42.705Z,28.13
2018-05-17T03:24:42.680Z,33.75
2018-05-17T03:25:42.718Z,33.75
2018-05-17T03:26:42.630Z,39.38
2018-05-17T03:27:42.604Z,39.38
2018-05-17T03:28:42.578Z,45.00
2018-05-17T03:29:42.549Z,45.00
2018-05-17T03:30:42.525Z,50.63
2018-05-17T03:31:42.497Z,50.63
2018-05-17T03:32:42.476Z,50.63
2018-05-17T03:33:42.446Z,56.25
2018-05-17T03:34:42.420Z,56.25
2018-05-17T03:35:42.393Z,61.88
2018-05-17T03:36:42.370Z,61.88
2018-05-17T03:37:42.341Z,67.50
2018-05-17T03:38:42.316Z,73.13
2018-05-17T03:39:42.289Z,78.75
2018-05-17T03:40:42.264Z,78.75
2018-05-17T03:41:42.241Z,84.38
2018-05-17T03:42:42.258Z,90.00
2018-05-17T03:43:42.185Z,90.00
2018-05-17T03:44:42.159Z,95.63
2018-05-17T03:45:42.134Z,101.25
2018-05-17T03:46:42.107Z,106.88
2018-05-17T03:47:42.080Z,106.88
2018-05-17T03:48:42.065Z,112.50
2018-05-17T03:49:42.031Z,118.13
2018-05-17T03:50:42.003Z,118.13
2018-05-17T03:51:41.976Z,123.75
2018-05-17T03:52:41.951Z,129.38
2018-05-17T03:53:41.926Z,129.38
2018-05-17T03:54:41.899Z,129.38
2018-05-17T03:55:41.872Z,140.63
2018-05-17T03:56:41.852Z,146.25
2018-05-17T03:57:41.821Z,168.75
2018-05-17T03:58:41.795Z,163.13
2018-05-17T03:59:41.767Z,168.75
2018-05-17T04:00:41.742Z,168.75
2018-05-17T04:01:41.717Z,174.38
2018-05-17T04:02:41.696Z,180.00
2018-05-17T04:03:41.664Z,191.25
2018-05-17T04:04:41.643Z,196.88
2018-05-17T04:05:41.612Z,202.50
2018-05-17T04:06:41.586Z,202.50
2018-05-17T04:07:41.559Z,202.50
2018-05-17T04:08:41.628Z,213.75
2018-05-17T04:09:41.508Z,213.75
2018-05-17T04:10:41.482Z,213.75
2018-05-17T04:11:41.456Z,213.75
2018-05-17T04:12:41.429Z,225.00
2018-05-17T04:13:41.404Z,225.00
2018-05-17T04:14:41.380Z,230.63
2018-05-17T04:15:41.352Z,247.50
2018-05-17T04:16:41.325Z,241.88
2018-05-17T04:17:41.302Z,253.13
2018-05-17T04:18:41.274Z,258.75
2018-05-17T04:19:41.249Z,275.63
2018-05-17T04:20:41.222Z,281.25
2018-05-17T04:21:41.196Z,292.50
2018-05-17T04:22:41.174Z,298.13
2018-05-17T04:23:41.144Z,309.38
2018-05-17T04:24:41.118Z,309.38
2018-05-17T04:25:41.094Z,320.63
2018-05-17T04:26:41.067Z,326.25
2018-05-17T04:27:41.040Z,309.38
2018-05-17T04:28:41.019Z,320.63
2018-05-17T04:29:40.994Z,331.88
2018-05-17T04:30:40.963Z,360.00
2018-05-17T04:31:40.939Z,348.75
2018-05-17T04:32:40.911Z,354.38
2018-05-17T04:33:40.885Z,348.75
2018-05-17T04:34:40.860Z,371.25
2018-05-17T04:35:40.832Z,371.25
2018-05-17T04:36:40.807Z,382.50
2018-05-17T04:37:40.787Z,393.75
2018-05-17T04:38:40.760Z,444.38
2018-05-17T04:39:40.729Z,601.88
2018-05-17T04:40:40.710Z,483.75
2018-05-17T04:41:40.678Z,472.50
2018-05-17T04:42:40.662Z,489.38
2018-05-17T04:43:40.629Z,495.00
2018-05-17T04:44:40.604Z,500.63
2018-05-17T04:45:40.576Z,506.25
2018-05-17T04:46:40.553Z,534.38
2018-05-17T04:47:40.523Z,697.50
2018-05-17T04:48:40.502Z,697.50
2018-05-17T04:49:40.473Z,720.00
2018-05-17T04:50:40.449Z,613.13
2018-05-17T04:51:40.422Z,607.50
2018-05-17T04:52:40.396Z,675.00
2018-05-17T04:53:40.374Z,714.38
2018-05-17T04:54:40.429Z,585.00
2018-05-17T04:55:40.321Z,585.00
2018-05-17T04:56:40.296Z,556.88
2018-05-17T04:57:40.271Z,573.75
2018-05-17T04:58:40.246Z,618.75
2018-05-17T04:59:40.222Z,697.50
2018-05-17T05:00:40.948Z,624.38
2018-05-17T05:01:40.176Z,663.75
2018-05-17T05:02:40.219Z,686.25
2018-05-17T05:03:40.125Z,663.75
2018-05-17T05:04:40.095Z,652.50
2018-05-17T05:05:40.071Z,635.63
2018-05-17T05:06:40.050Z,646.88
2018-05-17T05:07:40.023Z,646.88
2018-05-17T05:08:39.999Z,736.88
2018-05-17T05:09:39.971Z,675.00
2018-05-17T05:10:39.956Z,675.00
2018-05-17T05:11:39.924Z,691.88
2018-05-17T05:12:39.897Z,697.50
2018-05-17T05:13:39.873Z,703.13
2018-05-17T05:14:39.855Z,703.13
2018-05-17T05:15:39.833Z,1001.25
2018-05-17T05:16:39.799Z,765.00
2018-05-17T05:17:39.774Z,759.38
2018-05-17T05:18:39.750Z,748.13
2018-05-17T05:19:39.727Z,798.75
2018-05-17T05:20:39.701Z,810.00
2018-05-17T05:21:39.682Z,860.63
2018-05-17T05:22:39.659Z,849.38
2018-05-17T05:23:39.631Z,843.75
2018-05-17T05:24:39.604Z,855.00
2018-05-17T05:25:39.580Z,1186.88
2018-05-17T05:26:39.557Z,838.13
2018-05-17T05:27:39.531Z,866.25
2018-05-17T05:28:39.508Z,1158.75
2018-05-17T05:29:39.488Z,1074.38
2018-05-17T05:30:39.460Z,1029.38
2018-05-17T05:31:39.450Z,984.38
2018-05-17T05:32:39.412Z,1023.75
2018-05-17T05:33:39.389Z,1018.13
2018-05-17T05:34:39.369Z,849.38
2018-05-17T05:35:39.341Z,990.00
2018-05-17T05:36:39.318Z,950.63
2018-05-17T05:37:39.325Z,843.75
2018-05-17T05:38:39.276Z,883.13
2018-05-17T05:39:39.248Z,849.38
2018-05-17T05:40:39.225Z,1068.75
2018-05-17T05:41:39.212Z,967.50
2018-05-17T05:42:39.179Z,1158.75
2018-05-17T05:43:39.155Z,911.25
2018-05-17T05:44:39.136Z,995.63
2018-05-17T05:45:39.114Z,978.75
2018-05-17T05:46:39.093Z,967.50
2018-05-17T05:47:39.062Z,877.50
2018-05-17T05:48:39.042Z,883.13
2018-05-17T05:49:39.050Z,1271.25
2018-05-17T05:50:38.992Z,933.75
2018-05-17T05:51:38.968Z,900.00
2018-05-17T05:52:38.944Z,871.88
2018-05-17T05:53:38.923Z,956.25
2018-05-17T05:54:38.899Z,1012.50
2018-05-17T05:55:38.874Z,1096.88
2018-05-17T05:56:38.851Z,1018.13
2018-05-17T05:57:38.841Z,939.38
2018-05-17T05:58:38.805Z,1001.25
2018-05-17T05:59:38.781Z,1012.50
2018-05-17T06:00:38.763Z,1023.75
2018-05-17T06:01:38.741Z,1158.75
2018-05-17T06:02:38.726Z,956.25
2018-05-17T06:03:38.687Z,945.00
2018-05-17T06:04:38.665Z,1018.13
2018-05-17T06:05:38.643Z,1676.25
2018-05-17T06:06:38.618Z,1068.75
2018-05-17T06:07:38.597Z,1035.00
2018-05-17T06:08:38.572Z,1046.25
2018-05-17T06:09:38.548Z,1063.13
2018-05-17T06:10:38.525Z,1063.13
2018-05-17T06:11:38.501Z,1209.38
2018-05-17T06:12:38.479Z,1203.75
2018-05-17T06:13:38.455Z,1164.38
2018-05-17T06:14:38.433Z,1411.88
2018-05-17T06:15:38.413Z,1991.25
2018-05-17T06:16:38.389Z,1766.25
2018-05-17T06:17:38.363Z,1209.38
2018-05-17T06:18:38.340Z,1333.13
2018-05-17T06:19:38.317Z,1485.00
2018-05-17T06:20:38.296Z,1434.38
2018-05-17T06:21:38.272Z,1226.25
2018-05-17T06:22:38.249Z,1884.38
2018-05-17T06:23:38.225Z,1344.38
2018-05-17T06:24:38.207Z,1597.50
2018-05-17T06:25:38.180Z,1271.25
2018-05-17T06:26:38.158Z,1591.88
2018-05-17T06:27:38.138Z,1282.50
2018-05-17T06:28:38.118Z,1226.25
2018-05-17T06:29:38.090Z,1350.00
2018-05-17T06:30:38.067Z,1119.38
2018-05-17T06:31:38.044Z,1046.25
2018-05-17T06:32:38.024Z,1153.13
2018-05-17T06:33:38.020Z,1125.00
2018-05-17T06:34:37.977Z,1074.38
2018-05-17T06:35:37.955Z,1136.25
2018-05-17T06:36:37.932Z,1175.63
2018-05-17T06:37:37.913Z,1130.63
2018-05-17T06:38:37.886Z,1158.75
2018-05-17T06:39:37.864Z,1158.75
2018-05-17T06:40:37.845Z,1203.75
2018-05-17T06:41:37.818Z,1530.00
2018-05-17T06:42:37.796Z,1344.38
2018-05-17T06:43:37.773Z,1822.50
2018-05-17T06:44:37.755Z,1468.13
2018-05-17T06:45:37.732Z,1355.63
2018-05-17T06:46:37.710Z,1338.75
2018-05-17T06:47:37.684Z,1940.63
2018-05-17T06:48:37.661Z,2925.00
2018-05-17T06:49:37.640Z,1389.38
2018-05-17T06:50:37.617Z,2936.25
2018-05-17T06:51:37.602Z,3043.13
2018-05-17T06:52:37.575Z,2154.38
2018-05-17T06:53:37.557Z,2801.25
2018-05-17T06:54:37.532Z,1794.38
2018-05-17T06:55:37.509Z,1597.50
2018-05-17T06:56:37.488Z,1530.00
2018-05-17T06:57:37.477Z,1434.38
2018-05-17T06:58:37.446Z,1400.63
2018-05-17T06:59:37.426Z,1355.63
2018-05-17T07:00:37.446Z,1344.38
2018-05-17T07:01:37.383Z,1372.50
2018-05-17T07:02:37.362Z,1411.88
2018-05-17T07:03:37.341Z,1406.25
2018-05-17T07:04:37.320Z,1558.13
2018-05-17T07:05:37.299Z,1417.50
2018-05-17T07:06:37.278Z,1569.38
2018-05-17T07:07:37.257Z,1490.63
2018-05-17T07:08:37.250Z,1333.13
2018-05-17T07:09:37.214Z,1254.38
2018-05-17T07:10:37.195Z,1333.13
2018-05-17T07:11:37.171Z,1591.88
2018-05-17T07:12:37.151Z,1524.38
2018-05-17T07:13:37.137Z,1451.25
2018-05-17T07:14:37.109Z,1918.13
2018-05-17T07:15:37.088Z,1535.63
2018-05-17T07:16:37.066Z,1884.38
2018-05-17T07:17:37.059Z,1816.88
2018-05-17T07:18:37.235Z,1620.00
2018-05-17T07:19:37.008Z,1822.50
2018-05-17T07:20:36.986Z,1890.00
2018-05-17T07:21:36.959Z,1771.88
2018-05-17T07:22:36.943Z,2030.63
2018-05-17T07:23:36.916Z,1755.00
2018-05-17T07:24:36.896Z,1648.13
2018-05-17T07:25:36.875Z,1665.00
2018-05-17T07:26:36.854Z,1603.13
2018-05-17T07:27:36.833Z,1473.75
2018-05-17T07:28:36.811Z,1518.75
2018-05-17T07:29:36.791Z,2975.63
2018-05-17T07:30:36.772Z,1923.75
2018-05-17T07:31:36.755Z,3543.75
2018-05-17T07:32:36.727Z,1771.88
2018-05-17T07:33:36.706Z,1850.63
2018-05-17T07:34:36.688Z,1794.38
2018-05-17T07:35:36.666Z,1822.50
2018-05-17T07:36:36.644Z,2041.88
2018-05-17T07:37:36.628Z,2508.75
2018-05-17T07:38:36.657Z,1890.00
2018-05-17T07:39:36.581Z,1918.13
2018-05-17T07:40:36.563Z,1845.00
2018-05-17T07:41:36.547Z,1710.00
2018-05-17T07:42:36.528Z,1687.50
2018-05-17T07:43:36.511Z,1710.00
2018-05-17T07:44:36.488Z,1771.88
2018-05-17T07:45:36.460Z,1541.25
2018-05-17T07:46:36.442Z,1265.63
2018-05-17T07:47:36.419Z,1248.75
2018-05-17T07:48:36.399Z,3386.25
2018-05-17T07:49:36.383Z,3369.38
2018-05-17T07:50:36.363Z,3802.50
2018-05-17T07:51:36.347Z,3695.63
2018-05-17T07:52:36.326Z,1946.25
2018-05-17T07:53:36.298Z,2193.75
2018-05-17T07:54:36.278Z,2143.13
2018-05-17T07:55:36.286Z,1918.13
2018-05-17T07:56:36.238Z,1895.63
2018-05-17T07:57:36.219Z,1833.75
2018-05-17T07:58:36.213Z,1957.50
2018-05-17T07:59:36.194Z,2182.50
2018-05-17T08:00:36.191Z,1912.50
2018-05-17T08:01:36.140Z,2126.25
2018-05-17T08:02:36.131Z,2115.00
2018-05-17T08:03:36.101Z,2086.88
2018-05-17T08:04:36.083Z,1811.25
2018-05-17T08:05:36.062Z,1681.88
2018-05-17T08:06:36.045Z,1631.25
2018-05-17T08:07:36.024Z,3301.88
2018-05-17T08:08:36.054Z,2666.25
2018-05-17T08:09:35.989Z,1895.63
2018-05-17T08:10:35.963Z,2261.25
2018-05-17T08:11:35.943Z,2660.63
2018-05-17T08:12:35.923Z,2064.38
2018-05-17T08:13:35.909Z,2221.88
2018-05-17T08:14:35.884Z,1951.88
2018-05-17T08:15:35.868Z,1980.00
2018-05-17T08:16:35.862Z,1974.38
2018-05-17T08:17:35.831Z,1906.88
2018-05-17T08:18:35.810Z,1923.75
2018-05-17T08:19:35.791Z,2002.50
2018-05-17T08:20:35.768Z,1861.88
2018-05-17T08:21:35.749Z,1828.13
2018-05-17T08:22:35.735Z,1912.50
2018-05-17T08:23:35.707Z,1771.88
2018-05-17T08:24:35.691Z,2137.50
2018-05-17T08:25:35.674Z,1980.00
2018-05-17T08:26:35.650Z,2041.88
2018-05-17T08:27:35.630Z,1951.88
2018-05-17T08:28:35.620Z,2238.75
2018-05-17T08:29:35.610Z,2171.25
2018-05-17T08:30:35.580Z,3330.00
2018-05-17T08:31:35.549Z,2036.25
2018-05-17T08:32:35.531Z,2103.75
2018-05-17T08:33:35.509Z,1951.88
2018-05-17T08:34:35.500Z,2210.63
2018-05-17T08:35:35.468Z,2199.38
2018-05-17T08:36:35.631Z,1918.13
2018-05-17T08:37:35.433Z,1890.00
2018-05-17T08:38:35.415Z,1890.00
2018-05-17T08:39:35.407Z,1963.13
2018-05-17T08:40:35.368Z,1946.25
2018-05-17T08:41:35.348Z,1873.13
2018-05-17T08:42:35.433Z,1929.38
2018-05-17T08:43:35.306Z,1918.13
2018-05-17T08:44:35.289Z,2041.88
2018-05-17T08:45:35.314Z,3391.88
2018-05-17T08:46:35.250Z,1918.13
2018-05-17T08:47:35.225Z,2154.38
2018-05-17T08:48:35.204Z,2520.00
2018-05-17T08:49:35.222Z,4505.63
2018-05-17T08:50:35.166Z,2390.63
2018-05-17T08:51:35.152Z,4196.25
2018-05-17T08:52:35.344Z,2430.00
2018-05-17T08:53:35.111Z,2036.25
2018-05-17T08:54:35.136Z,1935.00
2018-05-17T08:55:35.070Z,2396.25
2018-05-17T08:56:35.051Z,1935.00
2018-05-17T08:57:35.028Z,1906.88
2018-05-17T08:58:35.010Z,2160.00
2018-05-17T08:59:34.989Z,2120.63
2018-05-17T09:00:34.974Z,2345.63
2018-05-17T09:01:34.951Z,2025.00
2018-05-17T09:02:34.932Z,4685.63
2018-05-17T09:03:34.912Z,4584.38
2018-05-17T09:04:34.893Z,2773.13
2018-05-17T09:05:34.874Z,2368.13
2018-05-17T09:06:34.855Z,2278.13
2018-05-17T09:07:34.840Z,2064.38
2018-05-17T09:08:34.821Z,2070.00
2018-05-17T09:09:34.804Z,4072.50
2018-05-17T09:10:34.779Z,4156.88
2018-05-17T09:11:34.760Z,4331.25
2018-05-17T09:12:34.748Z,4432.50
2018-05-17T09:13:34.965Z,3650.63
2018-05-17T09:14:34.708Z,2452.50
2018-05-17T09:15:34.689Z,2334.38
2018-05-17T09:16:34.669Z,4708.13
2018-05-17T09:17:34.652Z,4218.75
2018-05-17T09:18:34.646Z,2368.13
2018-05-17T09:19:34.628Z,3960.00
2018-05-17T09:20:34.897Z,2671.88
2018-05-17T09:21:34.825Z,2643.75
2018-05-17T09:22:34.764Z,2958.75
2018-05-17T09:23:34.551Z,4426.88
2018-05-17T09:24:34.526Z,3105.00
2018-05-17T09:25:34.714Z,2514.38
2018-05-17T09:26:34.492Z,2430.00
2018-05-17T09:27:34.475Z,2165.63
2018-05-17T09:28:34.457Z,2508.75
2018-05-17T09:29:34.454Z,2435.63
2018-05-17T09:30:34.445Z,2311.88
2018-05-17T09:31:34.414Z,2221.88
2018-05-17T09:32:34.389Z,2255.63
2018-05-17T09:33:34.369Z,2160.00
2018-05-17T09:34:34.352Z,2233.13
2018-05-17T09:35:34.363Z,1996.88
2018-05-17T09:36:34.321Z,1912.50
2018-05-17T09:37:34.305Z,1901.25
2018-05-17T09:38:34.482Z,2266.88
2018-05-17T09:39:34.466Z,2317.50
2018-05-17T09:40:34.243Z,2278.13
2018-05-17T09:41:34.246Z,2182.50
2018-05-17T09:42:34.207Z,2261.25
2018-05-17T09:43:34.187Z,2593.13
2018-05-17T09:44:34.170Z,3043.13
2018-05-17T09:45:34.150Z,2553.75
2018-05-17T09:46:34.137Z,2351.25
2018-05-17T09:47:34.144Z,2278.13
2018-05-17T09:48:34.098Z,2396.25
2018-05-17T09:49:34.076Z,4066.88
2018-05-17T09:50:34.058Z,2317.50
2018-05-17T09:51:34.044Z,2323.13
2018-05-17T09:52:34.023Z,2306.25
2018-05-17T09:53:34.003Z,2289.38
2018-05-17T09:54:33.993Z,2463.75
2018-05-17T09:55:33.964Z,2278.13
2018-05-17T09:56:34.020Z,2345.63
2018-05-17T09:57:33.970Z,3003.75
2018-05-17T09:58:33.909Z,2435.63
2018-05-17T09:59:33.890Z,2379.38
2018-05-17T10:00:33.871Z,2424.38
2018-05-17T10:01:33.863Z,2896.88
2018-05-17T10:02:33.856Z,2677.50
2018-05-17T10:03:33.814Z,3425.63
2018-05-17T10:04:33.801Z,2705.63
2018-05-17T10:05:33.806Z,2818.13
2018-05-17T10:06:33.764Z,2778.75
2018-05-17T10:07:33.740Z,2531.25
2018-05-17T10:08:33.723Z,2593.13
2018-05-17T10:09:33.708Z,3121.88
2018-05-17T10:10:33.686Z,2458.13
2018-05-17T10:11:33.667Z,2407.50
2018-05-17T10:12:33.653Z,3071.25
2018-05-17T10:13:33.632Z,2756.25
2018-05-17T10:14:33.666Z,2767.50
2018-05-17T10:15:33.633Z,2430.00
2018-05-17T10:16:33.588Z,2356.88
2018-05-17T10:17:33.558Z,2508.75
2018-05-17T10:18:33.542Z,2328.75
2018-05-17T10:19:33.521Z,2745.00
2018-05-17T10:20:33.508Z,3245.63
2018-05-17T10:21:33.489Z,2992.50
2018-05-17T10:22:33.471Z,2531.25
2018-05-17T10:23:33.452Z,5585.63
2018-05-17T10:24:33.469Z,2953.13
2018-05-17T10:25:33.414Z,2750.63
2018-05-17T10:26:33.394Z,2643.75
2018-05-17T10:27:33.419Z,5259.38
2018-05-17T10:28:33.356Z,2666.25
2018-05-17T10:29:33.448Z,2778.75
2018-05-17T10:30:33.321Z,2722.50
2018-05-17T10:31:33.302Z,2767.50
2018-05-17T10:32:33.292Z,2497.50
2018-05-17T10:33:33.272Z,2587.50
2018-05-17T10:34:33.249Z,2362.50
2018-05-17T10:35:33.230Z,2368.13
2018-05-17T10:36:33.224Z,2250.00
2018-05-17T10:37:33.215Z,2463.75
2018-05-17T10:38:33.177Z,3003.75
2018-05-17T10:39:33.184Z,4899.38
2018-05-17T10:40:33.204Z,2643.75
2018-05-17T10:41:33.131Z,2548.13
2018-05-17T10:42:33.103Z,2694.38
2018-05-17T10:43:33.111Z,3791.25
2018-05-17T10:44:33.070Z,2829.38
2018-05-17T10:45:33.058Z,2520.00
2018-05-17T10:46:33.105Z,2773.13
2018-05-17T10:47:33.012Z,3026.25
2018-05-17T10:48:32.993Z,2778.75
2018-05-17T10:49:32.978Z,2536.88
2018-05-17T10:50:32.959Z,2328.75
2018-05-17T10:51:32.944Z,2486.25
2018-05-17T10:52:32.996Z,2677.50
2018-05-17T10:53:32.906Z,2626.88
2018-05-17T10:54:32.937Z,2778.75
2018-05-17T10:55:32.866Z,2778.75
2018-05-17T10:56:32.851Z,2981.25
2018-05-17T10:57:32.903Z,2801.25
2018-05-17T10:58:32.816Z,2503.13
2018-05-17T10:59:32.796Z,5011.88
2018-05-17T11:00:32.775Z,2986.88
2018-05-17T11:01:32.758Z,3071.25
2018-05-17T11:02:32.755Z,2891.25
2018-05-17T11:03:32.721Z,3380.63
2018-05-17T11:04:32.736Z,3003.75
2018-05-17T11:05:32.772Z,3583.13
2018-05-17T11:06:32.670Z,4955.63
2018-05-17T11:07:32.666Z,4443.75
2018-05-17T11:08:32.651Z,2851.88
2018-05-17T11:09:32.616Z,2373.75
2018-05-17T11:10:32.615Z,5175.00
2018-05-17T11:11:32.582Z,4044.38
2018-05-17T11:12:32.588Z,3476.25
2018-05-17T11:13:32.578Z,3864.38
2018-05-17T11:14:32.734Z,3240.00
2018-05-17T11:15:32.517Z,5360.63
2018-05-17T11:16:32.701Z,3408.75
2018-05-17T11:17:32.488Z,3583.13
2018-05-17T11:18:32.466Z,3802.50
2018-05-17T11:19:32.488Z,2525.63
2018-05-17T11:20:32.434Z,2323.13
2018-05-17T11:21:32.504Z,2317.50
2018-05-17T11:22:32.405Z,2373.75
2018-05-17T11:23:32.401Z,3082.50
2018-05-17T11:24:32.596Z,2390.63
2018-05-17T11:25:32.553Z,3802.50
2018-05-17T11:26:32.335Z,2840.63
2018-05-17T11:27:32.335Z,2525.63
2018-05-17T11:28:32.304Z,2418.75
2018-05-17T11:29:32.289Z,4185.00
2018-05-17T11:30:32.279Z,2435.63
2018-05-17T11:31:32.249Z,4426.88
2018-05-17T11:32:32.527Z,2598.75
2018-05-17T11:33:32.216Z,1991.25
2018-05-17T11:34:32.201Z,2013.75
2018-05-17T11:35:32.205Z,5321.25
2018-05-17T11:36:32.163Z,3161.25
2018-05-17T11:37:32.146Z,2745.00
2018-05-17T11:38:32.218Z,3566.25
2018-05-17T11:39:32.126Z,3217.50
2018-05-17T11:40:32.104Z,2784.38
2018-05-17T11:41:32.280Z,2576.25
2018-05-17T11:42:32.075Z,2660.63
2018-05-17T11:43:32.057Z,2311.88
2018-05-17T11:44:32.032Z,2261.25
2018-05-17T11:45:32.014Z,2666.25
2018-05-17T11:46:32.008Z,2334.38
2018-05-17T11:47:31.978Z,3841.88
2018-05-17T11:48:31.958Z,2340.00
2018-05-17T11:49:31.947Z,2250.00
2018-05-17T11:50:32.219Z,2086.88
2018-05-17T11:51:32.106Z,2126.25
2018-05-17T11:52:31.902Z,2306.25
2018-05-17T11:53:31.870Z,2250.00
2018-05-17T11:54:31.856Z,2103.75
2018-05-17T11:55:31.833Z,2300.63
2018-05-17T11:56:31.818Z,2778.75
2018-05-17T11:57:31.801Z,2396.25
2018-05-17T11:58:31.779Z,2660.63
2018-05-17T11:59:31.762Z,2266.88
2018-05-17T12:00:31.742Z,2047.50
2018-05-17T12:01:32.020Z,1923.75
2018-05-17T12:02:31.984Z,1918.13
2018-05-17T12:03:32.905Z,2036.25
2018-05-17T12:04:31.683Z,2120.63
2018-05-17T12:05:31.853Z,2345.63
2018-05-17T12:06:31.635Z,2266.88
2018-05-17T12:07:31.639Z,2131.88
2018-05-17T12:08:31.604Z,2233.13
2018-05-17T12:09:31.578Z,3808.13
2018-05-17T12:10:31.558Z,2430.00
2018-05-17T12:11:31.538Z,2148.75
2018-05-17T12:12:31.519Z,2289.38
2018-05-17T12:13:31.509Z,2143.13
2018-05-17T12:14:31.487Z,2216.25
2018-05-17T12:15:31.465Z,2469.38
2018-05-17T12:16:31.442Z,2182.50
2018-05-17T12:17:31.453Z,2075.63
2018-05-17T12:18:31.404Z,2947.50
2018-05-17T12:19:31.388Z,2103.75
2018-05-17T12:20:31.365Z,2075.63
2018-05-17T12:21:31.345Z,1946.25
2018-05-17T12:22:31.329Z,1873.13
2018-05-17T12:23:31.305Z,1732.50
2018-05-17T12:24:31.286Z,1687.50
2018-05-17T12:25:31.267Z,1721.25
2018-05-17T12:26:31.255Z,1822.50
2018-05-17T12:27:31.226Z,1951.88
2018-05-17T12:28:31.209Z,1906.88